sensor_id;sensor_type;location;lat;lon;timestamp;temperature;humidity
36244;DHT22;22284;49.956;19.816;2022-10-30T00:01:14;12.20;83.60
36244;DHT22;22284;49.956;19.816;2022-10-30T00:04:17;12.20;83.73
36244;DHT22;22284;49.956;19.816;2022-10-30T00:07:18;12.18;83.83
36244;DHT22;22284;49.956;19.816;2022-10-30T00:10:19;12.11;83.90
36244;DHT22;22284;49.956;19.816;2022-10-30T00:13:20;12.11;83.88
36244;DHT22;22284;49.956;19.816;2022-10-30T00:16:21;12.07;83.76
36244;DHT22;22284;49.956;19.816;2022-10-30T00:19:22;12.04;83.61
36244;DHT22;22284;49.956;19.816;2022-10-30T00:22:24;12.02;83.44
36244;DHT22;22284;49.956;19.816;2022-10-30T00:25:25;11.98;83.40
36244;DHT22;22284;49.956;19.816;2022-10-30T00:28:26;11.97;83.36
36244;DHT22;22284;49.956;19.816;2022-10-30T00:31:27;11.91;83.37
36244;DHT22;22284;49.956;19.816;2022-10-30T00:34:28;11.88;83.37
36244;DHT22;22284;49.956;19.816;2022-10-30T00:37:29;11.86;83.37
36244;DHT22;22284;49.956;19.816;2022-10-30T00:40:30;11.83;83.31
36244;DHT22;22284;49.956;19.816;2022-10-30T00:43:36;11.80;83.23
36244;DHT22;22284;49.956;19.816;2022-10-30T00:46:39;11.74;83.16
36244;DHT22;22284;49.956;19.816;2022-10-30T00:49:49;11.70;82.99
36244;DHT22;22284;49.956;19.816;2022-10-30T00:52:56;11.63;82.91
36244;DHT22;22284;49.956;19.816;2022-10-30T00:56:00;11.63;82.87
36244;DHT22;22284;49.956;19.816;2022-10-30T00:59:07;11.62;82.88
36244;DHT22;22284;49.956;19.816;2022-10-30T01:02:08;11.59;82.92
36244;DHT22;22284;49.956;19.816;2022-10-30T01:05:14;11.58;83.05
36244;DHT22;22284;49.956;19.816;2022-10-30T01:08:16;11.55;83.01
36244;DHT22;22284;49.956;19.816;2022-10-30T01:11:17;11.51;83.09
36244;DHT22;22284;49.956;19.816;2022-10-30T01:14:19;11.48;83.11
36244;DHT22;22284;49.956;19.816;2022-10-30T01:31:22;11.25;83.42
36244;DHT22;22284;49.956;19.816;2022-10-30T01:40:43;11.21;83.66
36244;DHT22;22284;49.956;19.816;2022-10-30T01:43:45;11.25;83.86
36244;DHT22;22284;49.956;19.816;2022-10-30T01:47:28;11.25;83.68
36244;DHT22;22284;49.956;19.816;2022-10-30T01:54:13;11.22;83.83
36244;DHT22;22284;49.956;19.816;2022-10-30T02:00:33;11.22;84.12
36244;DHT22;22284;49.956;19.816;2022-10-30T02:03:36;11.22;84.28
36244;DHT22;22284;49.956;19.816;2022-10-30T02:06:38;11.24;84.24
36244;DHT22;22284;49.956;19.816;2022-10-30T02:09:40;11.22;84.35
36244;DHT22;22284;49.956;19.816;2022-10-30T02:12:42;11.21;84.37
36244;DHT22;22284;49.956;19.816;2022-10-30T02:15:44;11.22;84.40
36244;DHT22;22284;49.956;19.816;2022-10-30T02:18:47;11.28;84.44
36244;DHT22;22284;49.956;19.816;2022-10-30T02:21:49;11.25;84.46
36244;DHT22;22284;49.956;19.816;2022-10-30T02:24:50;11.22;84.49
36244;DHT22;22284;49.956;19.816;2022-10-30T02:27:51;11.22;84.47
36244;DHT22;22284;49.956;19.816;2022-10-30T02:30:53;11.15;84.37
36244;DHT22;22284;49.956;19.816;2022-10-30T02:33:54;11.15;84.39
36244;DHT22;22284;49.956;19.816;2022-10-30T02:36:55;11.10;84.41
36244;DHT22;22284;49.956;19.816;2022-10-30T02:39:56;11.06;84.41
36244;DHT22;22284;49.956;19.816;2022-10-30T02:42:57;11.06;84.39
36244;DHT22;22284;49.956;19.816;2022-10-30T02:45:58;11.04;84.38
36244;DHT22;22284;49.956;19.816;2022-10-30T02:48:59;11.03;84.38
36244;DHT22;22284;49.956;19.816;2022-10-30T02:52:01;11.00;84.23
36244;DHT22;22284;49.956;19.816;2022-10-30T02:55:03;10.97;84.26
36244;DHT22;22284;49.956;19.816;2022-10-30T02:58:04;10.94;84.24
36244;DHT22;22284;49.956;19.816;2022-10-30T03:01:14;10.94;84.21
36244;DHT22;22284;49.956;19.816;2022-10-30T03:04:16;10.90;84.22
36244;DHT22;22284;49.956;19.816;2022-10-30T03:07:17;10.87;84.18
36244;DHT22;22284;49.956;19.816;2022-10-30T03:10:18;10.84;84.11
36244;DHT22;22284;49.956;19.816;2022-10-30T03:13:19;10.82;84.04
36244;DHT22;22284;49.956;19.816;2022-10-30T03:16:23;10.82;83.98
36244;DHT22;22284;49.956;19.816;2022-10-30T03:19:25;10.80;83.96
36244;DHT22;22284;49.956;19.816;2022-10-30T03:22:26;10.79;83.96
36244;DHT22;22284;49.956;19.816;2022-10-30T03:25:27;10.76;83.90
36244;DHT22;22284;49.956;19.816;2022-10-30T03:28:29;10.73;83.85
36244;DHT22;22284;49.956;19.816;2022-10-30T03:31:31;10.65;83.82
36244;DHT22;22284;49.956;19.816;2022-10-30T03:34:32;10.62;83.71
36244;DHT22;22284;49.956;19.816;2022-10-30T03:37:33;10.56;83.64
36244;DHT22;22284;49.956;19.816;2022-10-30T03:40:35;10.53;83.57
36244;DHT22;22284;49.956;19.816;2022-10-30T03:43:36;10.49;83.54
36244;DHT22;22284;49.956;19.816;2022-10-30T03:46:37;10.46;83.49
36244;DHT22;22284;49.956;19.816;2022-10-30T03:49:38;10.45;83.40
36244;DHT22;22284;49.956;19.816;2022-10-30T03:52:39;10.41;83.37
36244;DHT22;22284;49.956;19.816;2022-10-30T03:55:40;10.41;83.33
36244;DHT22;22284;49.956;19.816;2022-10-30T03:58:41;10.35;83.32
36244;DHT22;22284;49.956;19.816;2022-10-30T04:01:42;10.35;83.35
36244;DHT22;22284;49.956;19.816;2022-10-30T04:04:43;10.32;83.33
36244;DHT22;22284;49.956;19.816;2022-10-30T04:07:45;10.29;83.34
36244;DHT22;22284;49.956;19.816;2022-10-30T04:10:48;10.27;83.40
36244;DHT22;22284;49.956;19.816;2022-10-30T04:13:49;10.24;83.55
36244;DHT22;22284;49.956;19.816;2022-10-30T04:16:50;10.21;83.56
36244;DHT22;22284;49.956;19.816;2022-10-30T04:19:51;10.20;83.58
36244;DHT22;22284;49.956;19.816;2022-10-30T04:22:58;10.16;83.55
36244;DHT22;22284;49.956;19.816;2022-10-30T04:26:00;10.14;83.57
36244;DHT22;22284;49.956;19.816;2022-10-30T04:29:02;10.10;83.58
36244;DHT22;22284;49.956;19.816;2022-10-30T04:32:03;10.09;83.53
36244;DHT22;22284;49.956;19.816;2022-10-30T04:35:05;10.10;83.57
36244;DHT22;22284;49.956;19.816;2022-10-30T04:38:13;10.07;83.60
36244;DHT22;22284;49.956;19.816;2022-10-30T04:41:15;10.06;83.64
36244;DHT22;22284;49.956;19.816;2022-10-30T04:44:16;10.04;83.61
36244;DHT22;22284;49.956;19.816;2022-10-30T04:47:17;10.04;83.61
36244;DHT22;22284;49.956;19.816;2022-10-30T04:50:19;10.01;83.55
36244;DHT22;22284;49.956;19.816;2022-10-30T04:53:20;10.00;83.47
36244;DHT22;22284;49.956;19.816;2022-10-30T04:56:21;9.97;83.40
36244;DHT22;22284;49.956;19.816;2022-10-30T04:59:22;9.94;83.37
36244;DHT22;22284;49.956;19.816;2022-10-30T05:02:23;9.89;83.31
36244;DHT22;22284;49.956;19.816;2022-10-30T05:05:24;9.85;83.24
36244;DHT22;22284;49.956;19.816;2022-10-30T05:08:26;9.79;83.21
36244;DHT22;22284;49.956;19.816;2022-10-30T05:11:27;9.72;83.25
36244;DHT22;22284;49.956;19.816;2022-10-30T05:14:30;9.69;83.25
36244;DHT22;22284;49.956;19.816;2022-10-30T05:17:32;9.63;83.25
36244;DHT22;22284;49.956;19.816;2022-10-30T05:20:33;9.62;83.21
36244;DHT22;22284;49.956;19.816;2022-10-30T05:23:34;9.62;83.16
36244;DHT22;22284;49.956;19.816;2022-10-30T05:26:35;9.61;83.13
36244;DHT22;22284;49.956;19.816;2022-10-30T05:29:36;9.58;83.13
36244;DHT22;22284;49.956;19.816;2022-10-30T05:32:37;9.59;83.18
36244;DHT22;22284;49.956;19.816;2022-10-30T05:35:38;9.63;83.20
36244;DHT22;22284;49.956;19.816;2022-10-30T05:38:39;9.61;83.16
36244;DHT22;22284;49.956;19.816;2022-10-30T05:41:40;9.56;83.10
36244;DHT22;22284;49.956;19.816;2022-10-30T05:44:41;9.56;83.08
36244;DHT22;22284;49.956;19.816;2022-10-30T05:47:43;9.59;83.21
36244;DHT22;22284;49.956;19.816;2022-10-30T05:50:44;9.63;83.41
36244;DHT22;22284;49.956;19.816;2022-10-30T05:53:49;9.70;83.61
36244;DHT22;22284;49.956;19.816;2022-10-30T05:56:50;9.72;83.70
36244;DHT22;22284;49.956;19.816;2022-10-30T05:59:51;9.73;83.79
36244;DHT22;22284;49.956;19.816;2022-10-30T06:02:52;9.73;83.64
36244;DHT22;22284;49.956;19.816;2022-10-30T06:05:55;9.76;83.53
36244;DHT22;22284;49.956;19.816;2022-10-30T06:08:56;9.78;83.50
36244;DHT22;22284;49.956;19.816;2022-10-30T06:11:57;9.79;83.61
36244;DHT22;22284;49.956;19.816;2022-10-30T06:14:58;9.83;83.74
36244;DHT22;22284;49.956;19.816;2022-10-30T06:17:59;9.88;83.94
36244;DHT22;22284;49.956;19.816;2022-10-30T06:21:00;9.88;84.01
36244;DHT22;22284;49.956;19.816;2022-10-30T06:24:01;9.88;83.97
36244;DHT22;22284;49.956;19.816;2022-10-30T06:27:03;9.88;83.88
36244;DHT22;22284;49.956;19.816;2022-10-30T06:30:05;9.86;83.75
36244;DHT22;22284;49.956;19.816;2022-10-30T06:33:08;9.88;83.63
36244;DHT22;22284;49.956;19.816;2022-10-30T06:36:09;9.88;83.53
36244;DHT22;22284;49.956;19.816;2022-10-30T06:39:10;9.90;83.45
36244;DHT22;22284;49.956;19.816;2022-10-30T06:42:11;9.90;83.48
36244;DHT22;22284;49.956;19.816;2022-10-30T06:45:14;9.96;83.50
36244;DHT22;22284;49.956;19.816;2022-10-30T06:48:16;9.97;83.54
36244;DHT22;22284;49.956;19.816;2022-10-30T06:54:46;10.03;83.58
36244;DHT22;22284;49.956;19.816;2022-10-30T06:57:53;10.09;83.63
36244;DHT22;22284;49.956;19.816;2022-10-30T07:00:55;10.14;83.68
36244;DHT22;22284;49.956;19.816;2022-10-30T07:03:58;10.16;83.80
36244;DHT22;22284;49.956;19.816;2022-10-30T07:06:59;10.21;83.82
36244;DHT22;22284;49.956;19.816;2022-10-30T07:10:00;10.27;83.92
36244;DHT22;22284;49.956;19.816;2022-10-30T07:13:01;10.31;84.04
36244;DHT22;22284;49.956;19.816;2022-10-30T07:16:03;10.37;84.15
36244;DHT22;22284;49.956;19.816;2022-10-30T07:19:04;10.45;84.29
36244;DHT22;22284;49.956;19.816;2022-10-30T07:22:05;10.51;84.40
36244;DHT22;22284;49.956;19.816;2022-10-30T07:25:06;10.61;84.53
36244;DHT22;22284;49.956;19.816;2022-10-30T07:28:08;10.69;84.58
36244;DHT22;22284;49.956;19.816;2022-10-30T07:31:08;10.76;84.73
36244;DHT22;22284;49.956;19.816;2022-10-30T07:34:10;10.83;84.86
36244;DHT22;22284;49.956;19.816;2022-10-30T07:37:11;10.93;84.97
36244;DHT22;22284;49.956;19.816;2022-10-30T07:40:12;10.98;85.09
36244;DHT22;22284;49.956;19.816;2022-10-30T07:43:13;11.11;85.24
36244;DHT22;22284;49.956;19.816;2022-10-30T07:46:16;11.19;85.39
36244;DHT22;22284;49.956;19.816;2022-10-30T07:49:17;11.29;85.57
36244;DHT22;22284;49.956;19.816;2022-10-30T07:52:18;11.41;85.78
36244;DHT22;22284;49.956;19.816;2022-10-30T07:55:22;11.52;85.92
36244;DHT22;22284;49.956;19.816;2022-10-30T07:58:23;11.66;86.01
36244;DHT22;22284;49.956;19.816;2022-10-30T08:01:24;11.79;86.26
36244;DHT22;22284;49.956;19.816;2022-10-30T08:04:26;11.91;86.27
36244;DHT22;22284;49.956;19.816;2022-10-30T08:07:31;12.09;86.49
36244;DHT22;22284;49.956;19.816;2022-10-30T08:10:33;12.22;86.51
36244;DHT22;22284;49.956;19.816;2022-10-30T08:13:35;12.38;86.62
36244;DHT22;22284;49.956;19.816;2022-10-30T08:16:36;12.50;86.49
36244;DHT22;22284;49.956;19.816;2022-10-30T08:19:37;12.60;86.45
36244;DHT22;22284;49.956;19.816;2022-10-30T08:22:56;12.73;86.39
36244;DHT22;22284;49.956;19.816;2022-10-30T08:25:57;12.84;86.32
36244;DHT22;22284;49.956;19.816;2022-10-30T08:29:00;12.94;86.21
36244;DHT22;22284;49.956;19.816;2022-10-30T08:32:01;13.03;86.07
36244;DHT22;22284;49.956;19.816;2022-10-30T08:35:02;13.12;85.84
36244;DHT22;22284;49.956;19.816;2022-10-30T08:38:03;13.22;85.69
36244;DHT22;22284;49.956;19.816;2022-10-30T08:41:05;13.32;85.47
36244;DHT22;22284;49.956;19.816;2022-10-30T08:44:07;13.42;85.33
36244;DHT22;22284;49.956;19.816;2022-10-30T08:47:08;13.53;85.18
36244;DHT22;22284;49.956;19.816;2022-10-30T08:50:09;13.66;84.92
36244;DHT22;22284;49.956;19.816;2022-10-30T08:53:12;13.73;84.68
36244;DHT22;22284;49.956;19.816;2022-10-30T08:56:15;13.84;84.47
36244;DHT22;22284;49.956;19.816;2022-10-30T08:59:16;13.94;84.22
36244;DHT22;22284;49.956;19.816;2022-10-30T09:02:17;14.04;84.02
36244;DHT22;22284;49.956;19.816;2022-10-30T09:05:19;14.12;83.82
36244;DHT22;22284;49.956;19.816;2022-10-30T09:08:20;14.23;83.64
36244;DHT22;22284;49.956;19.816;2022-10-30T09:11:22;14.33;83.46
36244;DHT22;22284;49.956;19.816;2022-10-30T09:14:23;14.44;83.26
36244;DHT22;22284;49.956;19.816;2022-10-30T09:17:24;14.56;83.09
36244;DHT22;22284;49.956;19.816;2022-10-30T09:20:26;14.66;82.86
36244;DHT22;22284;49.956;19.816;2022-10-30T09:23:28;14.75;82.70
36244;DHT22;22284;49.956;19.816;2022-10-30T09:26:29;14.87;82.50
36244;DHT22;22284;49.956;19.816;2022-10-30T09:29:30;14.95;82.31
36244;DHT22;22284;49.956;19.816;2022-10-30T09:32:31;15.05;82.17
36244;DHT22;22284;49.956;19.816;2022-10-30T09:35:32;15.11;81.97
36244;DHT22;22284;49.956;19.816;2022-10-30T09:38:33;15.20;81.85
36244;DHT22;22284;49.956;19.816;2022-10-30T10:05:49;15.95;80.11
36244;DHT22;22284;49.956;19.816;2022-10-30T10:12:03;16.05;79.69
36244;DHT22;22284;49.956;19.816;2022-10-30T10:15:10;16.13;79.69
36244;DHT22;22284;49.956;19.816;2022-10-30T10:18:28;16.18;79.62
36244;DHT22;22284;49.956;19.816;2022-10-30T10:21:29;16.22;79.33
36244;DHT22;22284;49.956;19.816;2022-10-30T10:24:38;16.27;79.25
36244;DHT22;22284;49.956;19.816;2022-10-30T10:28:15;16.37;79.12
36244;DHT22;22284;49.956;19.816;2022-10-30T10:35:22;16.58;78.75
36244;DHT22;22284;49.956;19.816;2022-10-30T10:42:23;16.81;78.13
36244;DHT22;22284;49.956;19.816;2022-10-30T10:45:38;16.91;78.08
36244;DHT22;22284;49.956;19.816;2022-10-30T10:52:14;17.10;77.23
36244;DHT22;22284;49.956;19.816;2022-10-30T10:55:20;17.16;77.33
36244;DHT22;22284;49.956;19.816;2022-10-30T10:58:53;17.26;77.26
36244;DHT22;22284;49.956;19.816;2022-10-30T11:05:38;17.38;76.83
36244;DHT22;22284;49.956;19.816;2022-10-30T11:08:39;17.47;76.76
36244;DHT22;22284;49.956;19.816;2022-10-30T11:11:42;17.54;76.59
36244;DHT22;22284;49.956;19.816;2022-10-30T11:14:43;17.65;76.26
36244;DHT22;22284;49.956;19.816;2022-10-30T11:18:04;17.75;76.05
36244;DHT22;22284;49.956;19.816;2022-10-30T11:21:14;17.86;75.87
36244;DHT22;22284;49.956;19.816;2022-10-30T11:24:33;17.95;75.53
36244;DHT22;22284;49.956;19.816;2022-10-30T11:27:35;18.03;75.28
36244;DHT22;22284;49.956;19.816;2022-10-30T11:30:36;18.10;75.13
36244;DHT22;22284;49.956;19.816;2022-10-30T11:33:38;18.19;74.76
36244;DHT22;22284;49.956;19.816;2022-10-30T11:36:39;18.24;74.43
36244;DHT22;22284;49.956;19.816;2022-10-30T11:39:40;18.30;74.29
36244;DHT22;22284;49.956;19.816;2022-10-30T11:42:45;18.33;74.05
36244;DHT22;22284;49.956;19.816;2022-10-30T11:45:48;18.40;73.69
36244;DHT22;22284;49.956;19.816;2022-10-30T11:48:49;18.44;73.67
36244;DHT22;22284;49.956;19.816;2022-10-30T11:51:52;18.50;73.54
36244;DHT22;22284;49.956;19.816;2022-10-30T11:58:36;18.54;72.88
36244;DHT22;22284;49.956;19.816;2022-10-30T12:01:38;18.54;72.65
36244;DHT22;22284;49.956;19.816;2022-10-30T12:04:39;18.54;72.59
36244;DHT22;22284;49.956;19.816;2022-10-30T12:07:40;18.54;72.26
36244;DHT22;22284;49.956;19.816;2022-10-30T12:11:03;18.58;72.09
36244;DHT22;22284;49.956;19.816;2022-10-30T12:14:05;18.62;71.83
36244;DHT22;22284;49.956;19.816;2022-10-30T12:17:06;18.68;71.84
36244;DHT22;22284;49.956;19.816;2022-10-30T12:20:12;18.74;71.59
36244;DHT22;22284;49.956;19.816;2022-10-30T12:23:23;18.79;71.60
36244;DHT22;22284;49.956;19.816;2022-10-30T12:26:26;18.83;71.55
36244;DHT22;22284;49.956;19.816;2022-10-30T12:30:16;18.87;71.20
36244;DHT22;22284;49.956;19.816;2022-10-30T12:33:28;18.90;71.11
36244;DHT22;22284;49.956;19.816;2022-10-30T12:36:34;18.92;70.96
36244;DHT22;22284;49.956;19.816;2022-10-30T12:39:57;18.93;70.73
36244;DHT22;22284;49.956;19.816;2022-10-30T12:43:20;18.97;70.80
36244;DHT22;22284;49.956;19.816;2022-10-30T12:46:37;18.90;70.78
36244;DHT22;22284;49.956;19.816;2022-10-30T12:49:52;18.89;70.74
36244;DHT22;22284;49.956;19.816;2022-10-30T12:56:31;18.92;70.94
36244;DHT22;22284;49.956;19.816;2022-10-30T13:00:13;18.92;70.91
36244;DHT22;22284;49.956;19.816;2022-10-30T13:03:48;19.00;70.60
36244;DHT22;22284;49.956;19.816;2022-10-30T13:06:54;19.04;70.53
36244;DHT22;22284;49.956;19.816;2022-10-30T13:13:34;19.13;70.14
36244;DHT22;22284;49.956;19.816;2022-10-30T13:16:31;19.19;69.81
36244;DHT22;22284;49.956;19.816;2022-10-30T13:19:32;19.29;69.95
36244;DHT22;22284;49.956;19.816;2022-10-30T13:22:43;19.29;69.99
36244;DHT22;22284;49.956;19.816;2022-10-30T13:26:00;19.29;70.11
36244;DHT22;22284;49.956;19.816;2022-10-30T13:52:43;19.85;68.72
36244;DHT22;22284;49.956;19.816;2022-10-30T13:55:45;19.87;68.60
36244;DHT22;22284;49.956;19.816;2022-10-30T14:10:10;20.03;68.16
36244;DHT22;22284;49.956;19.816;2022-10-30T14:13:20;19.97;68.42
36244;DHT22;22284;49.956;19.816;2022-10-30T14:16:40;19.92;68.62
36244;DHT22;22284;49.956;19.816;2022-10-30T14:23:31;19.73;69.34
36244;DHT22;22284;49.956;19.816;2022-10-30T14:26:33;19.65;69.67
36244;DHT22;22284;49.956;19.816;2022-10-30T14:32:48;19.44;70.50
36244;DHT22;22284;49.956;19.816;2022-10-30T14:36:13;19.31;70.91
36244;DHT22;22284;49.956;19.816;2022-10-30T14:42:34;19.09;71.69
36244;DHT22;22284;49.956;19.816;2022-10-30T14:45:47;19.00;72.00
36244;DHT22;22284;49.956;19.816;2022-10-30T14:52:58;18.75;72.39
36244;DHT22;22284;49.956;19.816;2022-10-30T14:59:30;18.55;72.65
36244;DHT22;22284;49.956;19.816;2022-10-30T15:13:20;18.13;73.63
36244;DHT22;22284;49.956;19.816;2022-10-30T15:16:23;18.05;73.79
36244;DHT22;22284;49.956;19.816;2022-10-30T15:19:27;17.98;73.97
36244;DHT22;22284;49.956;19.816;2022-10-30T15:22:30;17.92;74.08
36244;DHT22;22284;49.956;19.816;2022-10-30T15:25:51;17.84;74.16
36244;DHT22;22284;49.956;19.816;2022-10-30T15:28:53;17.77;74.13
36244;DHT22;22284;49.956;19.816;2022-10-30T15:32:13;17.74;74.15
36244;DHT22;22284;49.956;19.816;2022-10-30T15:38:20;17.60;74.30
36244;DHT22;22284;49.956;19.816;2022-10-30T15:41:21;17.54;74.43
36244;DHT22;22284;49.956;19.816;2022-10-30T15:44:27;17.48;74.53
36244;DHT22;22284;49.956;19.816;2022-10-30T15:47:29;17.41;74.65
36244;DHT22;22284;49.956;19.816;2022-10-30T15:50:32;17.37;74.82
36244;DHT22;22284;49.956;19.816;2022-10-30T15:53:50;17.29;74.91
36244;DHT22;22284;49.956;19.816;2022-10-30T15:56:53;17.22;75.03
36244;DHT22;22284;49.956;19.816;2022-10-30T15:59:59;17.13;75.27
36244;DHT22;22284;49.956;19.816;2022-10-30T16:03:15;17.05;75.39
36244;DHT22;22284;49.956;19.816;2022-10-30T16:06:19;16.96;75.54
36244;DHT22;22284;49.956;19.816;2022-10-30T16:09:21;16.87;75.74
36244;DHT22;22284;49.956;19.816;2022-10-30T16:12:29;16.76;75.87
36244;DHT22;22284;49.956;19.816;2022-10-30T16:15:33;16.71;76.07
36244;DHT22;22284;49.956;19.816;2022-10-30T16:18:36;16.58;76.37
36244;DHT22;22284;49.956;19.816;2022-10-30T16:21:37;16.51;76.51
36244;DHT22;22284;49.956;19.816;2022-10-30T16:24:39;16.41;76.75
36244;DHT22;22284;49.956;19.816;2022-10-30T16:27:45;16.33;76.92
36244;DHT22;22284;49.956;19.816;2022-10-30T16:30:46;16.26;77.03
36244;DHT22;22284;49.956;19.816;2022-10-30T16:33:47;16.18;77.11
36244;DHT22;22284;49.956;19.816;2022-10-30T16:36:49;16.12;77.29
36244;DHT22;22284;49.956;19.816;2022-10-30T16:39:52;15.99;77.40
36244;DHT22;22284;49.956;19.816;2022-10-30T16:42:57;15.93;77.51
36244;DHT22;22284;49.956;19.816;2022-10-30T16:49:22;15.78;77.65
36244;DHT22;22284;49.956;19.816;2022-10-30T16:52:29;15.70;77.70
36244;DHT22;22284;49.956;19.816;2022-10-30T16:55:30;15.61;77.79
36244;DHT22;22284;49.956;19.816;2022-10-30T16:58:31;15.51;77.86
36244;DHT22;22284;49.956;19.816;2022-10-30T17:01:32;15.47;77.95
36244;DHT22;22284;49.956;19.816;2022-10-30T17:04:34;15.37;78.06
36244;DHT22;22284;49.956;19.816;2022-10-30T17:07:36;15.32;78.15
36244;DHT22;22284;49.956;19.816;2022-10-30T17:10:57;15.25;78.27
36244;DHT22;22284;49.956;19.816;2022-10-30T17:14:01;15.15;78.36
36244;DHT22;22284;49.956;19.816;2022-10-30T17:17:13;15.08;78.42
36244;DHT22;22284;49.956;19.816;2022-10-30T17:23:24;14.92;78.91
36244;DHT22;22284;49.956;19.816;2022-10-30T17:26:27;14.88;79.08
36244;DHT22;22284;49.956;19.816;2022-10-30T17:32:43;14.74;79.38
36244;DHT22;22284;49.956;19.816;2022-10-30T17:35:44;14.67;79.46
36244;DHT22;22284;49.956;19.816;2022-10-30T17:38:45;14.63;79.41
36244;DHT22;22284;49.956;19.816;2022-10-30T17:41:46;14.56;79.45
36244;DHT22;22284;49.956;19.816;2022-10-30T17:44:47;14.52;79.58
36244;DHT22;22284;49.956;19.816;2022-10-30T17:47:48;14.47;79.62
36244;DHT22;22284;49.956;19.816;2022-10-30T17:50:49;14.40;79.67
36244;DHT22;22284;49.956;19.816;2022-10-30T17:53:51;14.35;79.76
36244;DHT22;22284;49.956;19.816;2022-10-30T17:56:52;14.29;79.82
36244;DHT22;22284;49.956;19.816;2022-10-30T17:59:54;14.21;79.82
36244;DHT22;22284;49.956;19.816;2022-10-30T18:02:55;14.18;79.88
36244;DHT22;22284;49.956;19.816;2022-10-30T18:05:59;14.13;79.99
36244;DHT22;22284;49.956;19.816;2022-10-30T18:09:00;14.08;80.09
36244;DHT22;22284;49.956;19.816;2022-10-30T18:12:04;14.04;80.20
36244;DHT22;22284;49.956;19.816;2022-10-30T18:15:34;14.00;80.36
36244;DHT22;22284;49.956;19.816;2022-10-30T18:18:36;13.93;80.43
36244;DHT22;22284;49.956;19.816;2022-10-30T18:21:38;13.85;80.42
36244;DHT22;22284;49.956;19.816;2022-10-30T18:24:39;13.88;80.54
36244;DHT22;22284;49.956;19.816;2022-10-30T18:27:40;13.80;80.59
36244;DHT22;22284;49.956;19.816;2022-10-30T18:30:44;13.77;80.76
36244;DHT22;22284;49.956;19.816;2022-10-30T18:33:46;13.70;80.94
36244;DHT22;22284;49.956;19.816;2022-10-30T18:36:48;13.70;81.08
36244;DHT22;22284;49.956;19.816;2022-10-30T18:39:49;13.64;81.12
36244;DHT22;22284;49.956;19.816;2022-10-30T18:42:50;13.60;81.15
36244;DHT22;22284;49.956;19.816;2022-10-30T18:45:51;13.53;81.37
36244;DHT22;22284;49.956;19.816;2022-10-30T18:48:52;13.50;81.41
36244;DHT22;22284;49.956;19.816;2022-10-30T18:51:53;13.46;81.40
36244;DHT22;22284;49.956;19.816;2022-10-30T18:54:55;13.43;81.42
36244;DHT22;22284;49.956;19.816;2022-10-30T18:57:56;13.39;81.41
36244;DHT22;22284;49.956;19.816;2022-10-30T19:00:57;13.36;81.48
36244;DHT22;22284;49.956;19.816;2022-10-30T19:03:59;13.31;81.46
36244;DHT22;22284;49.956;19.816;2022-10-30T19:07:02;13.29;81.48
36244;DHT22;22284;49.956;19.816;2022-10-30T19:10:04;13.25;81.48
36244;DHT22;22284;49.956;19.816;2022-10-30T19:13:13;13.23;81.62
36244;DHT22;22284;49.956;19.816;2022-10-30T19:16:17;13.19;81.68
36244;DHT22;22284;49.956;19.816;2022-10-30T19:19:18;13.18;81.74
36244;DHT22;22284;49.956;19.816;2022-10-30T19:22:19;13.17;81.83
36244;DHT22;22284;49.956;19.816;2022-10-30T19:25:25;13.11;81.93
36244;DHT22;22284;49.956;19.816;2022-10-30T19:28:27;13.07;81.94
36244;DHT22;22284;49.956;19.816;2022-10-30T19:31:30;13.05;82.22
36244;DHT22;22284;49.956;19.816;2022-10-30T19:34:31;13.03;82.10
36244;DHT22;22284;49.956;19.816;2022-10-30T19:37:32;12.94;82.09
36244;DHT22;22284;49.956;19.816;2022-10-30T19:40:35;12.91;82.12
36244;DHT22;22284;49.956;19.816;2022-10-30T19:43:38;12.87;82.18
36244;DHT22;22284;49.956;19.816;2022-10-30T19:46:39;12.83;82.21
36244;DHT22;22284;49.956;19.816;2022-10-30T19:49:40;12.81;82.16
36244;DHT22;22284;49.956;19.816;2022-10-30T19:52:41;12.78;82.22
36244;DHT22;22284;49.956;19.816;2022-10-30T19:55:42;12.73;82.24
36244;DHT22;22284;49.956;19.816;2022-10-30T19:58:43;12.73;82.29
36244;DHT22;22284;49.956;19.816;2022-10-30T20:01:44;12.66;82.36
36244;DHT22;22284;49.956;19.816;2022-10-30T20:04:47;12.63;82.58
36244;DHT22;22284;49.956;19.816;2022-10-30T20:11:00;12.48;82.71
36244;DHT22;22284;49.956;19.816;2022-10-30T20:14:01;12.42;82.88
36244;DHT22;22284;49.956;19.816;2022-10-30T20:17:02;12.38;82.84
36244;DHT22;22284;49.956;19.816;2022-10-30T20:20:05;12.36;82.81
36244;DHT22;22284;49.956;19.816;2022-10-30T20:23:06;12.35;82.93
36244;DHT22;22284;49.956;19.816;2022-10-30T20:26:27;12.28;82.95
36244;DHT22;22284;49.956;19.816;2022-10-30T20:29:25;12.22;82.97
36244;DHT22;22284;49.956;19.816;2022-10-30T20:32:26;12.18;82.95
36244;DHT22;22284;49.956;19.816;2022-10-30T20:35:27;12.09;83.13
36244;DHT22;22284;49.956;19.816;2022-10-30T20:38:31;12.07;83.26
36244;DHT22;22284;49.956;19.816;2022-10-30T20:41:33;12.01;83.34
36244;DHT22;22284;49.956;19.816;2022-10-30T20:44:34;11.97;83.37
36244;DHT22;22284;49.956;19.816;2022-10-30T20:47:35;11.94;83.39
36244;DHT22;22284;49.956;19.816;2022-10-30T20:50:37;11.93;83.32
36244;DHT22;22284;49.956;19.816;2022-10-30T20:53:38;11.91;83.25
36244;DHT22;22284;49.956;19.816;2022-10-30T20:56:39;11.88;83.11
36244;DHT22;22284;49.956;19.816;2022-10-30T20:59:40;11.91;83.01
36244;DHT22;22284;49.956;19.816;2022-10-30T21:02:41;11.90;82.91
36244;DHT22;22284;49.956;19.816;2022-10-30T21:05:44;11.88;82.85
36244;DHT22;22284;49.956;19.816;2022-10-30T21:08:45;11.86;82.82
36244;DHT22;22284;49.956;19.816;2022-10-30T21:11:46;11.80;82.77
36244;DHT22;22284;49.956;19.816;2022-10-30T21:14:47;11.77;82.72
36244;DHT22;22284;49.956;19.816;2022-10-30T21:17:49;11.76;82.69
36244;DHT22;22284;49.956;19.816;2022-10-30T21:20:50;11.74;82.65
36244;DHT22;22284;49.956;19.816;2022-10-30T21:23:54;11.72;82.71
36244;DHT22;22284;49.956;19.816;2022-10-30T21:26:55;11.65;82.76
36244;DHT22;22284;49.956;19.816;2022-10-30T21:29:57;11.63;82.76
36244;DHT22;22284;49.956;19.816;2022-10-30T21:32:58;11.56;82.80
36244;DHT22;22284;49.956;19.816;2022-10-30T21:36:04;11.51;82.91
36244;DHT22;22284;49.956;19.816;2022-10-30T21:39:05;11.46;82.90
36244;DHT22;22284;49.956;19.816;2022-10-30T21:42:06;11.43;82.93
36244;DHT22;22284;49.956;19.816;2022-10-30T21:45:08;11.41;82.91
36244;DHT22;22284;49.956;19.816;2022-10-30T21:48:09;11.38;82.89